createdAt,value
2019-02-15T00:02:19.263Z,81.90
2019-02-15T00:04:45.587Z,82.90
2019-02-15T00:07:11.815Z,83.10
2019-02-15T00:09:38.041Z,82.80
2019-02-15T00:12:04.285Z,83.40
2019-02-15T00:14:43.494Z,83.00
2019-02-15T00:17:09.831Z,83.30
2019-02-15T00:19:37.941Z,84.00
2019-02-15T00:22:04.173Z,83.00
2019-02-15T00:24:30.397Z,82.80
2019-02-15T00:26:56.637Z,83.30
2019-02-15T00:29:22.957Z,84.30
2019-02-15T00:31:49.207Z,84.90
2019-02-15T00:34:15.590Z,83.40
2019-02-15T00:36:41.917Z,83.80
2019-02-15T00:39:08.262Z,84.40
2019-02-15T00:41:34.500Z,84.40
2019-02-15T00:44:00.833Z,85.10
2019-02-15T00:46:29.135Z,85.00
2019-02-15T00:48:56.156Z,86.30
2019-02-15T00:51:41.097Z,86.70
2019-02-15T00:54:11.987Z,84.40
2019-02-15T00:56:42.761Z,84.20
2019-02-15T00:59:13.949Z,85.80
2019-02-15T01:01:58.940Z,85.00
2019-02-15T01:04:29.884Z,84.50
2019-02-15T01:06:58.111Z,86.10
2019-02-15T01:09:26.268Z,84.50
2019-02-15T01:12:00.334Z,83.90
2019-02-15T01:14:26.669Z,83.70
2019-02-15T01:16:52.981Z,84.60
2019-02-15T01:19:19.217Z,85.40
2019-02-15T01:21:46.770Z,86.80
2019-02-15T01:24:12.992Z,86.60
2019-02-15T01:26:41.129Z,86.10
2019-02-15T01:29:21.545Z,85.90
2019-02-15T01:31:52.723Z,86.90
2019-02-15T01:34:27.222Z,89.80
2019-02-15T01:36:55.445Z,88.00
2019-02-15T01:39:29.385Z,85.80
2019-02-15T01:42:00.077Z,86.40
2019-02-15T01:44:44.630Z,87.10
2019-02-15T01:47:13.623Z,87.80
2019-02-15T01:49:39.863Z,89.00
2019-02-15T01:52:06.562Z,89.40
2019-02-15T01:54:32.789Z,88.80
2019-02-15T01:56:59.026Z,90.00
2019-02-15T01:59:25.591Z,88.70
2019-02-15T02:01:52.595Z,87.70
2019-02-15T02:04:18.921Z,88.00
2019-02-15T02:06:45.170Z,87.00
2019-02-15T02:09:11.473Z,86.50
2019-02-15T02:11:37.807Z,88.10
2019-02-15T02:14:04.244Z,88.80
2019-02-15T02:16:30.562Z,88.60
2019-02-15T02:18:56.957Z,86.40
2019-02-15T02:21:23.188Z,86.30
2019-02-15T02:23:49.420Z,85.00
2019-02-15T02:26:15.641Z,85.10
2019-02-15T02:28:41.885Z,85.00
2019-02-15T02:31:08.220Z,84.80
2019-02-15T02:33:34.566Z,85.60
2019-02-15T02:36:00.906Z,86.80
2019-02-15T02:38:27.230Z,86.50
2019-02-15T02:40:53.558Z,86.80
2019-02-15T02:43:19.808Z,86.80
2019-02-15T02:45:46.033Z,87.10
2019-02-15T02:48:12.371Z,87.50
2019-02-15T02:50:38.691Z,87.60
2019-02-15T02:53:05.055Z,88.00
2019-02-15T02:55:31.368Z,87.00
2019-02-15T02:57:57.606Z,87.00
2019-02-15T03:00:32.894Z,87.50
2019-02-15T03:02:51.993Z,86.90
2019-02-15T03:05:18.349Z,88.20
2019-02-15T03:07:44.710Z,88.70
2019-02-15T03:10:11.037Z,88.30
2019-02-15T03:12:37.298Z,87.50
2019-02-15T03:15:04.041Z,87.80
2019-02-15T03:17:30.274Z,88.00
2019-02-15T03:19:56.551Z,88.60
2019-02-15T03:22:22.950Z,88.90
2019-02-15T03:24:49.279Z,89.50
2019-02-15T03:27:15.542Z,88.40
2019-02-15T03:29:41.861Z,88.00
2019-02-15T03:32:08.109Z,88.30
2019-02-15T03:34:36.476Z,89.00
2019-02-15T03:37:20.867Z,88.30
2019-02-15T03:39:49.162Z,87.50
2019-02-15T03:42:15.454Z,87.70
2019-02-15T03:44:41.794Z,88.20
2019-02-15T03:47:08.125Z,88.70
2019-02-15T03:49:34.502Z,88.70
2019-02-15T03:52:00.830Z,88.40
2019-02-15T03:54:27.185Z,89.90
2019-02-15T03:56:53.453Z,88.90
2019-02-15T03:59:19.795Z,88.80
2019-02-15T04:01:46.052Z,89.00
2019-02-15T04:04:12.278Z,88.80
2019-02-15T04:06:38.516Z,89.00
2019-02-15T04:09:05.355Z,89.50
2019-02-15T04:11:31.590Z,90.40
2019-02-15T04:13:57.849Z,90.20
2019-02-15T04:16:24.110Z,89.70
2019-02-15T04:18:50.429Z,89.50
2019-02-15T04:21:16.763Z,89.70
2019-02-15T04:23:43.098Z,89.70
2019-02-15T04:26:09.393Z,89.60
2019-02-15T04:28:35.745Z,89.10
2019-02-15T04:31:02.090Z,89.10
2019-02-15T04:33:28.410Z,89.30
2019-02-15T04:35:54.759Z,89.20
2019-02-15T04:38:21.106Z,89.20
2019-02-15T04:40:47.435Z,90.20
2019-02-15T04:43:13.786Z,89.80
2019-02-15T04:45:40.117Z,90.10
2019-02-15T04:48:06.421Z,89.60
2019-02-15T04:50:32.651Z,89.60
2019-02-15T04:52:58.884Z,88.80
2019-02-15T04:55:25.231Z,89.20
2019-02-15T04:57:51.544Z,90.10
2019-02-15T05:00:17.893Z,90.00
2019-02-15T05:02:44.236Z,88.90
2019-02-15T05:05:10.656Z,88.90
2019-02-15T05:07:36.997Z,89.00
2019-02-15T05:10:04.049Z,90.00
2019-02-15T05:12:30.379Z,90.10
2019-02-15T05:14:56.722Z,89.70
2019-02-15T05:17:23.023Z,89.30
2019-02-15T05:19:49.354Z,89.40
2019-02-15T05:22:15.599Z,89.80
2019-02-15T05:24:41.924Z,89.70
2019-02-15T05:27:08.146Z,90.00
2019-02-15T05:29:34.455Z,90.40
2019-02-15T05:32:00.690Z,90.80
2019-02-15T05:34:27.013Z,90.90
2019-02-15T05:36:53.239Z,90.80
2019-02-15T05:39:19.468Z,90.30
2019-02-15T05:41:45.795Z,90.30
2019-02-15T05:44:12.074Z,90.30
2019-02-15T05:46:38.410Z,90.10
2019-02-15T05:49:04.645Z,90.00
2019-02-15T05:51:30.900Z,89.90
2019-02-15T05:53:57.226Z,89.20
2019-02-15T05:56:23.780Z,90.10
2019-02-15T05:58:50.020Z,90.30
2019-02-15T06:01:16.902Z,90.20
2019-02-15T06:03:43.134Z,90.40
2019-02-15T06:06:09.526Z,90.50
2019-02-15T06:08:35.742Z,90.60
2019-02-15T06:11:07.262Z,90.70
2019-02-15T06:13:30.115Z,90.50
2019-02-15T06:15:56.433Z,90.70
2019-02-15T06:18:22.797Z,91.00
2019-02-15T06:20:49.137Z,91.30
2019-02-15T06:23:15.455Z,91.30
2019-02-15T06:25:41.691Z,91.50
2019-02-15T06:28:08.014Z,91.60
2019-02-15T06:30:34.240Z,91.70
2019-02-15T06:33:00.648Z,91.60
2019-02-15T06:35:26.977Z,91.90
2019-02-15T06:37:53.218Z,92.00
2019-02-15T06:40:19.553Z,92.30
2019-02-15T06:42:45.809Z,92.40
2019-02-15T06:45:12.050Z,92.30
2019-02-15T06:47:38.377Z,91.90
2019-02-15T06:50:06.033Z,91.70
2019-02-15T06:52:32.251Z,91.80
2019-02-15T06:54:58.496Z,91.90
2019-02-15T06:57:25.075Z,92.10
2019-02-15T07:00:10.261Z,92.20
2019-02-15T07:02:38.422Z,92.20
2019-02-15T07:05:07.118Z,91.80
2019-02-15T07:07:33.351Z,91.40
2019-02-15T07:09:59.786Z,91.40
2019-02-15T07:12:26.100Z,91.50
2019-02-15T07:14:52.451Z,91.60
2019-02-15T07:17:18.795Z,91.90
2019-02-15T07:19:45.016Z,92.10
2019-02-15T07:22:11.343Z,92.10
2019-02-15T07:24:37.579Z,91.80
2019-02-15T07:27:03.838Z,91.70
2019-02-15T07:29:30.163Z,91.80
2019-02-15T07:31:56.513Z,91.70
2019-02-15T07:34:22.849Z,91.50
2019-02-15T07:36:49.257Z,91.40
2019-02-15T07:39:15.485Z,91.30
2019-02-15T07:41:41.713Z,91.20
2019-02-15T07:44:08.042Z,91.40
2019-02-15T07:46:34.397Z,91.10
2019-02-15T07:49:00.838Z,91.00
2019-02-15T07:51:27.165Z,90.90
2019-02-15T07:53:53.416Z,90.90
2019-02-15T07:56:19.654Z,91.00
2019-02-15T07:58:45.992Z,91.00
2019-02-15T08:01:12.333Z,90.90
2019-02-15T08:03:38.663Z,90.80
2019-02-15T08:06:04.985Z,90.80
2019-02-15T08:08:36.356Z,90.60
2019-02-15T08:11:04.548Z,90.60
2019-02-15T08:13:30.808Z,90.30
2019-02-15T08:15:57.127Z,90.40
2019-02-15T08:18:23.352Z,90.30
2019-02-15T08:20:49.584Z,90.30
2019-02-15T08:23:15.920Z,90.10
2019-02-15T08:25:42.352Z,90.00
2019-02-15T08:28:08.674Z,90.00
2019-02-15T08:30:34.909Z,89.50
2019-02-15T08:33:01.137Z,89.80
2019-02-15T08:35:27.365Z,89.10
2019-02-15T08:37:53.694Z,87.20
2019-02-15T08:40:20.018Z,86.40
2019-02-15T08:42:46.358Z,86.90
2019-02-15T08:45:12.653Z,88.20
2019-02-15T08:47:40.090Z,88.00
2019-02-15T08:50:10.129Z,88.80
2019-02-15T08:52:36.358Z,89.60
2019-02-15T08:55:04.699Z,88.30
2019-02-15T08:57:31.024Z,87.40
2019-02-15T08:59:57.294Z,87.00
2019-02-15T09:02:23.557Z,87.10
2019-02-15T09:04:49.914Z,86.60
2019-02-15T09:07:16.289Z,86.70
2019-02-15T09:09:42.550Z,86.20
2019-02-15T09:12:09.142Z,85.70
2019-02-15T09:14:40.182Z,87.00
2019-02-15T09:17:06.452Z,85.50
2019-02-15T09:19:32.789Z,85.50
2019-02-15T09:21:59.122Z,85.40
2019-02-15T09:24:25.373Z,84.80
2019-02-15T09:26:51.675Z,84.10
2019-02-15T09:29:19.114Z,83.90
2019-02-15T09:31:45.358Z,83.10
2019-02-15T09:34:11.620Z,82.90
2019-02-15T09:36:37.957Z,81.80
2019-02-15T09:39:05.381Z,81.20
2019-02-15T09:41:31.921Z,80.60
2019-02-15T09:43:58.229Z,80.40
2019-02-15T09:46:24.458Z,80.40
2019-02-15T09:48:50.710Z,79.80
2019-02-15T09:51:16.972Z,79.80
2019-02-15T09:53:43.295Z,79.40
2019-02-15T09:56:09.623Z,78.90
2019-02-15T09:58:35.858Z,79.50
2019-02-15T10:01:03.309Z,79.20
2019-02-15T10:03:29.562Z,79.00
2019-02-15T10:05:55.959Z,78.50
2019-02-15T10:08:24.327Z,79.10
2019-02-15T10:10:51.242Z,78.80
2019-02-15T10:13:17.466Z,79.20
2019-02-15T10:15:43.870Z,79.00
2019-02-15T10:18:10.214Z,79.00
2019-02-15T10:20:36.471Z,78.60
2019-02-15T10:23:02.807Z,78.30
2019-02-15T10:25:29.143Z,78.40
2019-02-15T10:27:55.476Z,78.90
2019-02-15T10:30:21.720Z,79.10
2019-02-15T10:32:48.197Z,78.80
2019-02-15T10:35:14.735Z,78.50
2019-02-15T10:37:40.960Z,78.10
2019-02-15T10:40:10.438Z,78.50
2019-02-15T10:42:38.145Z,78.70
2019-02-15T10:45:07.887Z,78.40
2019-02-15T10:47:34.305Z,78.90
2019-02-15T10:50:00.654Z,79.00
2019-02-15T10:52:26.979Z,79.00
2019-02-15T10:54:53.210Z,79.10
2019-02-15T10:57:19.461Z,79.20
2019-02-15T10:59:45.797Z,79.00
2019-02-15T11:02:13.079Z,78.90
2019-02-15T11:04:41.101Z,78.60
2019-02-15T11:07:07.470Z,78.70
2019-02-15T11:09:33.802Z,77.80
2019-02-15T11:12:00.155Z,77.50
2019-02-15T11:14:26.389Z,77.30
2019-02-15T11:16:52.645Z,76.90
2019-02-15T11:19:18.962Z,76.30
2019-02-15T11:21:45.188Z,76.20
2019-02-15T11:24:11.535Z,75.90
2019-02-15T11:26:37.879Z,76.00
2019-02-15T11:29:04.118Z,75.80
2019-02-15T11:31:30.642Z,75.50
2019-02-15T11:33:56.902Z,75.30
2019-02-15T11:36:23.143Z,75.00
2019-02-15T11:38:49.470Z,75.40
2019-02-15T11:41:15.738Z,74.50
2019-02-15T11:43:42.091Z,74.50
2019-02-15T11:46:08.337Z,75.00
2019-02-15T11:48:34.677Z,73.90
2019-02-15T11:51:01.102Z,73.70
2019-02-15T11:53:27.453Z,73.50
2019-02-15T11:55:53.806Z,73.30
2019-02-15T11:58:20.147Z,73.60
2019-02-15T12:00:46.430Z,73.30
2019-02-15T12:03:12.822Z,73.00
2019-02-15T12:05:39.172Z,73.00
2019-02-15T12:08:05.503Z,72.50
2019-02-15T12:10:31.776Z,72.10
2019-02-15T12:12:58.010Z,71.80
2019-02-15T12:15:24.349Z,72.10
2019-02-15T12:17:50.603Z,71.00
2019-02-15T12:20:16.948Z,70.10
2019-02-15T12:22:43.333Z,70.00
2019-02-15T12:25:09.584Z,69.60
2019-02-15T12:27:35.954Z,69.40
2019-02-15T12:30:03.876Z,69.40
2019-02-15T12:32:30.424Z,69.20
2019-02-15T12:34:56.768Z,68.90
2019-02-15T12:37:23.080Z,69.10
2019-02-15T12:39:49.429Z,68.70
2019-02-15T12:42:15.767Z,68.60
2019-02-15T12:44:42.095Z,68.80
2019-02-15T12:47:14.792Z,69.10
2019-02-15T12:49:36.491Z,69.50
2019-02-15T12:52:02.738Z,69.70
2019-02-15T12:54:30.149Z,69.80
2019-02-15T12:56:56.378Z,69.50
2019-02-15T12:59:22.655Z,69.40
2019-02-15T13:01:48.899Z,69.60
2019-02-15T13:04:15.129Z,69.40
2019-02-15T13:06:43.085Z,69.20
2019-02-15T13:09:09.538Z,69.30
2019-02-15T13:11:35.877Z,69.20
2019-02-15T13:14:02.298Z,68.70
2019-02-15T13:16:28.558Z,68.60
2019-02-15T13:18:54.807Z,68.80
2019-02-15T13:21:21.182Z,68.70
2019-02-15T13:23:47.524Z,68.70
2019-02-15T13:26:13.845Z,68.30
2019-02-15T13:28:40.170Z,68.60
2019-02-15T13:31:06.517Z,68.60
2019-02-15T13:33:32.744Z,68.60
2019-02-15T13:35:58.985Z,68.30
2019-02-15T13:38:25.226Z,68.00
2019-02-15T13:40:51.545Z,68.00
2019-02-15T13:43:17.784Z,68.30
2019-02-15T13:45:44.077Z,68.90
2019-02-15T13:48:10.325Z,69.00
2019-02-15T13:50:36.595Z,69.70
2019-02-15T13:53:02.837Z,70.40
2019-02-15T13:55:29.063Z,70.90
2019-02-15T13:57:55.356Z,71.20
2019-02-15T14:00:21.592Z,71.60
2019-02-15T14:02:47.841Z,71.70
2019-02-15T14:05:14.661Z,71.90
2019-02-15T14:07:40.891Z,72.20
2019-02-15T14:10:09.753Z,72.40
2019-02-15T14:12:36.084Z,72.60
2019-02-15T14:15:03.629Z,72.80
2019-02-15T14:17:29.872Z,72.70
2019-02-15T14:19:56.105Z,72.60
2019-02-15T14:22:22.425Z,72.50
2019-02-15T14:24:48.810Z,72.70
2019-02-15T14:27:15.117Z,72.80
2019-02-15T14:29:41.440Z,73.20
2019-02-15T14:32:07.658Z,73.60
2019-02-15T14:34:33.873Z,74.00
2019-02-15T14:37:00.128Z,74.50
2019-02-15T14:39:26.482Z,75.10
2019-02-15T14:41:52.814Z,75.30
2019-02-15T14:44:19.074Z,75.50
2019-02-15T14:46:45.397Z,75.60
2019-02-15T14:49:11.652Z,75.60
2019-02-15T14:51:38.007Z,75.80
2019-02-15T14:54:04.329Z,76.00
2019-02-15T14:56:30.605Z,76.10
2019-02-15T14:58:56.983Z,76.10
2019-02-15T15:01:23.383Z,76.30
2019-02-15T15:03:49.710Z,76.50
2019-02-15T15:06:15.982Z,76.30
2019-02-15T15:08:42.226Z,76.60
2019-02-15T15:11:08.733Z,76.90
2019-02-15T15:13:35.031Z,77.40
2019-02-15T15:16:01.261Z,77.50
2019-02-15T15:18:27.487Z,77.90
2019-02-15T15:20:53.749Z,77.90
2019-02-15T15:23:20.994Z,78.40
2019-02-15T15:25:47.241Z,78.70
2019-02-15T15:28:13.673Z,79.00
2019-02-15T15:30:39.921Z,79.10
2019-02-15T15:33:06.204Z,79.40
2019-02-15T15:35:32.456Z,79.70
2019-02-15T15:37:58.783Z,80.20
2019-02-15T15:40:25.006Z,80.70
2019-02-15T15:42:51.290Z,81.30
2019-02-15T15:45:17.581Z,81.90
2019-02-15T15:47:43.831Z,82.40
2019-02-15T15:50:10.578Z,83.20
2019-02-15T15:52:36.901Z,84.00
2019-02-15T15:55:04.370Z,84.70
2019-02-15T15:57:30.706Z,85.50
2019-02-15T15:59:57.037Z,86.30
2019-02-15T16:02:23.257Z,86.80
2019-02-15T16:04:49.573Z,87.30
2019-02-15T16:07:15.821Z,87.70
2019-02-15T16:09:42.065Z,88.10
2019-02-15T16:12:08.431Z,88.40
2019-02-15T16:14:34.664Z,88.90
2019-02-15T16:17:00.900Z,89.20
2019-02-15T16:19:27.232Z,89.50
2019-02-15T16:21:53.541Z,89.40
2019-02-15T16:24:19.778Z,89.40
2019-02-15T16:26:46.033Z,89.60
2019-02-15T16:29:13.948Z,90.10
2019-02-15T16:31:40.375Z,90.20
2019-02-15T16:34:06.610Z,90.40
2019-02-15T16:36:32.909Z,90.60
2019-02-15T16:38:59.142Z,90.90
2019-02-15T16:41:25.518Z,91.00
2019-02-15T16:43:51.850Z,90.90
2019-02-15T16:46:18.084Z,91.10
2019-02-15T16:48:44.336Z,90.90
2019-02-15T16:51:10.691Z,90.90
2019-02-15T16:53:36.992Z,91.00
2019-02-15T16:56:03.249Z,91.20
2019-02-15T16:58:29.511Z,91.30
2019-02-15T17:00:55.829Z,91.40
2019-02-15T17:03:22.157Z,91.30
2019-02-15T17:05:48.471Z,91.20
2019-02-15T17:08:15.050Z,91.20
2019-02-15T17:10:42.147Z,91.30
2019-02-15T17:13:08.469Z,91.70
2019-02-15T17:15:34.855Z,91.70
2019-02-15T17:18:01.089Z,91.90
2019-02-15T17:20:27.338Z,91.80
2019-02-15T17:22:53.673Z,91.60
2019-02-15T17:25:20.022Z,91.60
2019-02-15T17:27:47.458Z,91.50
2019-02-15T17:30:13.686Z,91.30
2019-02-15T17:32:39.950Z,92.00
2019-02-15T17:35:09.842Z,91.90
2019-02-15T17:37:36.183Z,92.30
2019-02-15T17:40:05.993Z,91.80
2019-02-15T17:42:33.225Z,91.80
2019-02-15T17:44:59.471Z,91.70
2019-02-15T17:47:25.833Z,91.70
2019-02-15T17:49:52.246Z,91.80
2019-02-15T17:52:18.588Z,92.20
2019-02-15T17:54:44.836Z,92.00
2019-02-15T17:57:11.152Z,92.00
2019-02-15T17:59:37.397Z,92.00
2019-02-15T18:02:12.165Z,91.80
2019-02-15T18:04:50.783Z,91.80
2019-02-15T18:07:25.024Z,92.00
2019-02-15T18:10:00.755Z,92.00
2019-02-15T18:12:33.451Z,92.40
2019-02-15T18:15:04.154Z,92.60
2019-02-15T18:17:37.086Z,92.60
2019-02-15T18:20:08.368Z,92.60
2019-02-15T18:22:38.133Z,92.50
2019-02-15T18:25:05.449Z,92.20
2019-02-15T18:27:36.794Z,91.80
2019-02-15T18:30:16.068Z,91.70
2019-02-15T18:32:43.415Z,91.50
2019-02-15T18:35:11.454Z,91.20
2019-02-15T18:37:43.000Z,91.10
2019-02-15T18:40:12.502Z,91.10
2019-02-15T18:42:40.898Z,91.40
2019-02-15T18:45:11.653Z,91.60
2019-02-15T18:47:39.082Z,91.90
2019-02-15T18:50:10.264Z,92.20
2019-02-15T18:52:48.174Z,92.80
2019-02-15T18:55:21.013Z,92.80
2019-02-15T18:57:56.447Z,92.80
2019-02-15T19:00:42.521Z,93.00
2019-02-15T19:03:13.096Z,92.90
2019-02-15T19:05:41.666Z,93.10
2019-02-15T19:08:11.629Z,93.00
2019-02-15T19:10:49.166Z,93.20
2019-02-15T19:13:16.254Z,92.90
2019-02-15T19:15:46.501Z,92.90
2019-02-15T19:18:12.949Z,92.80
2019-02-15T19:20:39.318Z,93.20
2019-02-15T19:23:05.766Z,93.50
2019-02-15T19:25:32.177Z,93.80
2019-02-15T19:27:59.648Z,94.10
2019-02-15T19:30:29.846Z,94.30
2019-02-15T19:32:58.665Z,94.30
2019-02-15T19:35:25.096Z,94.40
2019-02-15T19:37:52.488Z,94.20
2019-02-15T19:40:19.790Z,94.00
2019-02-15T19:42:51.082Z,94.00
2019-02-15T19:45:17.864Z,94.00
2019-02-15T19:47:47.109Z,93.90
2019-02-15T19:50:16.206Z,93.80
2019-02-15T19:52:45.567Z,93.80
2019-02-15T19:55:13.532Z,93.80
2019-02-15T19:57:42.929Z,93.90
2019-02-15T20:00:14.398Z,93.80
2019-02-15T20:02:40.756Z,93.70
2019-02-15T20:05:07.561Z,93.80
2019-02-15T20:07:36.956Z,94.00
2019-02-15T20:10:09.010Z,94.10
2019-02-15T20:12:39.310Z,94.10
2019-02-15T20:15:13.521Z,94.20
2019-02-15T20:17:41.329Z,94.40
2019-02-15T20:20:11.712Z,94.90
2019-02-15T20:22:40.607Z,95.20
2019-02-15T20:25:09.486Z,95.30
2019-02-15T20:27:35.936Z,95.30
2019-02-15T20:30:05.222Z,95.30
2019-02-15T20:32:31.669Z,95.40
2019-02-15T20:34:58.104Z,95.40
2019-02-15T20:37:24.358Z,95.40
2019-02-15T20:39:50.701Z,95.30
2019-02-15T20:42:16.967Z,95.30
2019-02-15T20:44:43.328Z,95.10
2019-02-15T20:47:09.637Z,95.00
2019-02-15T20:49:36.074Z,94.80
2019-02-15T20:52:02.430Z,94.70
2019-02-15T20:54:29.771Z,94.50
2019-02-15T20:56:56.125Z,94.40
2019-02-15T20:59:22.479Z,94.40
2019-02-15T21:01:48.850Z,94.10
2019-02-15T21:04:15.197Z,93.90
2019-02-15T21:06:41.455Z,93.80
2019-02-15T21:09:07.793Z,93.50
2019-02-15T21:11:34.049Z,93.70
2019-02-15T21:14:00.461Z,94.00
2019-02-15T21:16:26.800Z,94.00
2019-02-15T21:18:53.148Z,93.80
2019-02-15T21:21:19.482Z,93.80
2019-02-15T21:23:45.863Z,93.60
2019-02-15T21:26:12.184Z,93.10
2019-02-15T21:28:38.430Z,92.80
2019-02-15T21:31:04.845Z,92.90
2019-02-15T21:33:31.223Z,92.90
2019-02-15T21:35:57.555Z,92.00
2019-02-15T21:38:24.008Z,91.70
2019-02-15T21:40:50.259Z,91.80
2019-02-15T21:43:16.525Z,91.60
2019-02-15T21:45:42.880Z,91.70
2019-02-15T21:48:09.234Z,91.60
2019-02-15T21:50:36.488Z,91.50
2019-02-15T21:53:02.908Z,91.40
2019-02-15T21:55:29.246Z,91.60
2019-02-15T21:58:01.430Z,91.90
2019-02-15T22:00:24.365Z,92.10
2019-02-15T22:02:50.742Z,91.80
2019-02-15T22:05:17.103Z,91.40
2019-02-15T22:07:43.664Z,91.60
2019-02-15T22:10:09.986Z,91.50
2019-02-15T22:12:36.224Z,91.50
2019-02-15T22:15:04.937Z,91.60
2019-02-15T22:17:31.245Z,91.70
2019-02-15T22:19:58.205Z,91.50
2019-02-15T22:22:24.618Z,91.30
2019-02-15T22:24:50.920Z,91.30
2019-02-15T22:27:17.250Z,91.40
2019-02-15T22:29:43.604Z,91.30
2019-02-15T22:32:09.924Z,91.30
2019-02-15T22:34:36.163Z,91.10
2019-02-15T22:37:02.498Z,91.10
2019-02-15T22:39:29.941Z,91.00
2019-02-15T22:41:56.173Z,91.10
2019-02-15T22:44:22.657Z,91.00
2019-02-15T22:46:48.891Z,91.00
2019-02-15T22:49:15.130Z,91.00
2019-02-15T22:51:41.478Z,90.80
2019-02-15T22:54:07.733Z,90.70
2019-02-15T22:56:34.133Z,90.60
2019-02-15T22:59:00.396Z,90.60
2019-02-15T23:01:26.725Z,90.70
2019-02-15T23:03:53.073Z,90.40
2019-02-15T23:06:19.353Z,90.50
2019-02-15T23:08:45.746Z,90.40
2019-02-15T23:11:11.989Z,90.30
2019-02-15T23:13:38.542Z,90.30
2019-02-15T23:16:05.375Z,90.20
2019-02-15T23:18:33.748Z,90.20
2019-02-15T23:20:59.780Z,90.10
2019-02-15T23:23:26.007Z,90.10
2019-02-15T23:25:52.349Z,90.30
2019-02-15T23:28:18.653Z,90.30
2019-02-15T23:30:44.898Z,90.30
2019-02-15T23:33:11.127Z,90.40
2019-02-15T23:35:37.373Z,90.30
2019-02-15T23:38:03.615Z,90.20
2019-02-15T23:40:29.935Z,90.40
2019-02-15T23:42:56.202Z,90.40
2019-02-15T23:45:22.529Z,90.40
2019-02-15T23:47:48.855Z,90.50
2019-02-15T23:50:15.197Z,90.70
2019-02-15T23:52:41.426Z,90.30
2019-02-15T23:55:07.660Z,90.50
2019-02-15T23:57:34.003Z,90.30
